Time;durP1;ratioP1;P1;durP2;ratioP2;P2;SDS_P1;SDS_P2;PMS_P1;PMS_P2;Temp;Humidity;BMP_temperature;BMP_pressure;BME280_temperature;BME280_humidity;BME280_pressure;Samples;Min_cycle;Max_cycle;Signal;HPM_P1;HPM_P2
2023/03/14 00:00:34;;;;;;;39.25;18.05;;;;;;;6.76;58.26;96972.34;4970689;28;20027;-69
2023/03/14 00:03:00;;;;;;;39.25;17.73;;;;;;;6.75;58.25;96965.28;4970722;28;20023;-69
2023/03/14 00:05:25;;;;;;;41.75;18.33;;;;;;;6.74;58.33;96949.28;4970245;28;20019;-70
2023/03/14 00:07:51;;;;;;;40.30;17.77;;;;;;;6.73;58.29;96945.72;4969967;28;20049;-70
2023/03/14 00:10:17;;;;;;;35.95;16.25;;;;;;;6.74;58.25;96947.34;4970377;28;20035;-70
2023/03/14 00:12:43;;;;;;;35.70;16.45;;;;;;;6.76;58.51;96934.22;4969135;28;20031;-70
2023/03/14 00:15:09;;;;;;;36.13;16.83;;;;;;;6.78;58.49;96921.09;4970510;28;20038;-71
2023/03/14 00:17:35;;;;;;;44.03;18.33;;;;;;;6.80;58.59;96910.69;4970263;28;20043;-70
2023/03/14 00:20:07;;;;;;;44.38;21.25;;;;;;;6.80;58.62;96918.84;4970477;28;20027;-70
2023/03/14 00:22:36;;;;;;;97.78;46.42;;;;;;;6.81;58.44;96916.94;4970851;28;20029;-71
2023/03/14 00:25:02;;;;;;;59.50;28.55;;;;;;;6.82;58.61;96908.44;4974120;28;20062;-71
2023/03/14 00:27:27;;;;;;;54.10;26.58;;;;;;;6.83;58.66;96914.72;4970327;28;20031;-71
2023/03/14 00:29:53;;;;;;;33.25;14.85;;;;;;;6.83;58.88;96888.25;4970860;28;20387;-70
2023/03/14 00:32:18;;;;;;;22.83;11.40;;;;;;;6.88;58.91;96883.81;4970679;28;20383;-71
2023/03/14 00:34:44;;;;;;;20.88;10.50;;;;;;;6.93;59.01;96876.28;4970290;28;20031;-70
2023/03/14 00:37:09;;;;;;;15.80;8.70;;;;;;;7.00;59.20;96884.06;4969644;28;20069;-71
2023/03/14 00:39:34;;;;;;;19.65;8.18;;;;;;;7.06;59.33;96874.63;4969291;28;20026;-71
2023/03/14 00:42:00;;;;;;;15.32;7.10;;;;;;;7.14;59.33;96875.78;4969942;28;20034;-70
2023/03/14 00:44:25;;;;;;;12.25;6.60;;;;;;;7.20;59.02;96860.09;4970503;28;20037;-70
2023/03/14 00:46:51;;;;;;;11.15;5.95;;;;;;;7.24;59.18;96855.63;4969745;28;20033;-71
2023/03/14 00:49:16;;;;;;;11.48;5.68;;;;;;;7.28;59.61;96862.06;4969532;28;20030;-70
2023/03/14 00:51:41;;;;;;;11.70;6.03;;;;;;;7.32;58.86;96892.25;4969769;28;20018;-71
2023/03/14 00:54:07;;;;;;;10.05;5.30;;;;;;;7.32;59.45;96882.13;4970804;28;20138;-71
2023/03/14 00:56:32;;;;;;;13.07;5.75;;;;;;;7.33;58.83;96881.00;4969767;28;20051;-70
2023/03/14 00:58:58;;;;;;;13.35;6.65;;;;;;;7.35;59.08;96873.31;4969640;28;20153;-71
2023/03/14 01:01:24;;;;;;;14.65;6.95;;;;;;;7.35;58.97;96867.88;4969476;28;20077;-71
2023/03/14 01:03:55;;;;;;;13.43;6.75;;;;;;;7.33;58.58;96848.28;4970941;28;20030;-70
2023/03/14 01:06:23;;;;;;;8.32;4.95;;;;;;;7.36;59.40;96835.94;4972715;28;20061;-71
2023/03/14 01:08:49;;;;;;;8.50;4.70;;;;;;;7.40;59.15;96810.47;4969610;28;20069;-70
2023/03/14 01:11:17;;;;;;;8.50;5.25;;;;;;;7.47;59.10;96792.84;4969894;28;20193;-70
2023/03/14 01:13:43;;;;;;;8.82;3.90;;;;;;;7.51;59.50;96769.25;4973723;28;20043;-71
2023/03/14 01:16:10;;;;;;;6.70;3.75;;;;;;;7.57;59.39;96767.97;4972261;28;20058;-71
2023/03/14 01:18:37;;;;;;;5.85;3.70;;;;;;;7.63;59.36;96760.44;4969444;28;20163;-71
2023/03/14 01:21:14;;;;;;;7.35;3.55;;;;;;;7.66;59.32;96755.13;4969479;28;20625;-71
2023/03/14 01:23:40;;;;;;;8.20;3.75;;;;;;;7.71;59.66;96763.19;4969164;28;20015;-70
2023/03/14 01:26:10;;;;;;;6.57;3.33;;;;;;;7.78;59.68;96757.22;4969102;28;20042;-70
2023/03/14 01:28:35;;;;;;;8.77;4.22;;;;;;;7.81;59.39;96748.41;4969015;28;20174;-71
2023/03/14 01:31:06;;;;;;;7.63;3.47;;;;;;;7.87;59.29;96743.63;4969002;28;20027;-71
2023/03/14 01:33:32;;;;;;;7.70;4.28;;;;;;;7.92;59.03;96740.72;4968923;28;20085;-71
2023/03/14 01:35:57;;;;;;;7.22;3.72;;;;;;;7.95;59.02;96742.78;4969197;28;20023;-70
2023/03/14 01:38:23;;;;;;;7.50;4.15;;;;;;;7.98;59.51;96741.34;4970400;28;20085;-71
2023/03/14 01:40:48;;;;;;;8.45;4.20;;;;;;;8.00;58.99;96733.66;4967952;28;20102;-71
2023/03/14 01:43:16;;;;;;;7.75;4.32;;;;;;;8.01;59.03;96736.03;4969243;28;20494;-71
2023/03/14 01:46:04;;;;;;;7.20;3.90;;;;;;;8.02;59.01;96728.69;4969374;28;20026;-71
2023/03/14 01:48:43;;;;;;;5.82;3.38;;;;;;;8.04;59.16;96738.13;4969501;28;20487;-71
2023/03/14 01:51:13;;;;;;;6.90;4.38;;;;;;;8.05;58.72;96745.19;4970122;28;20542;-70
2023/03/14 01:53:41;;;;;;;7.88;4.53;;;;;;;8.04;58.76;96751.78;4974447;28;20073;-71
2023/03/14 01:56:10;;;;;;;7.80;4.28;;;;;;;8.03;58.83;96757.59;4972837;28;20042;-71
2023/03/14 01:58:35;;;;;;;9.73;4.60;;;;;;;8.00;58.58;96759.00;4970534;28;20487;-71
2023/03/14 02:01:02;;;;;;;7.80;4.53;;;;;;;7.99;58.65;96765.59;4972472;28;20019;-71
2023/03/14 02:03:30;;;;;;;7.80;4.35;;;;;;;7.98;58.52;96768.66;4986120;28;20118;-70
2023/03/14 02:06:03;;;;;;;7.43;3.80;;;;;;;7.97;58.45;96762.38;4972659;28;20550;-71
2023/03/14 02:08:30;;;;;;;7.80;3.90;;;;;;;7.96;59.23;96758.03;4978194;28;20041;-71
2023/03/14 02:10:56;;;;;;;6.63;4.22;;;;;;;7.94;58.70;96757.59;4972804;28;20119;-72
2023/03/14 02:13:22;;;;;;;6.07;3.80;;;;;;;7.93;58.72;96744.25;4972966;28;20015;-71
2023/03/14 02:15:48;;;;;;;6.72;3.88;;;;;;;7.92;59.11;96743.47;4972486;28;20030;-71
2023/03/14 02:18:16;;;;;;;9.63;4.28;;;;;;;7.92;58.92;96750.81;4972692;28;20110;-71
2023/03/14 02:20:55;;;;;;;8.60;4.40;;;;;;;7.89;58.65;96744.09;4973357;28;20020;-70
2023/03/14 02:23:35;;;;;;;7.18;4.18;;;;;;;7.87;59.00;96749.06;4971310;28;20023;-71
2023/03/14 02:26:20;;;;;;;11.07;4.35;;;;;;;7.85;59.05;96757.56;4978079;28;20705;-70
2023/03/14 02:28:46;;;;;;;10.60;4.65;;;;;;;7.83;58.85;96772.66;4972099;28;20089;-70
2023/03/14 02:31:12;;;;;;;13.85;6.38;;;;;;;7.79;58.89;96777.94;4972486;28;20027;-70
2023/03/14 02:33:38;;;;;;;12.48;6.32;;;;;;;7.77;58.89;96777.47;4976303;28;20444;-71
2023/03/14 02:36:07;;;;;;;10.48;5.80;;;;;;;7.73;59.15;96780.03;4987165;28;20075;-70
2023/03/14 02:39:00;;;;;;;11.95;6.90;;;;;;;7.68;58.77;96766.53;4971720;28;20410;-70
2023/03/14 02:41:26;;;;;;;14.23;7.40;;;;;;;7.64;58.81;96751.13;4971092;28;20027;-70
2023/03/14 02:43:51;;;;;;;12.27;8.10;;;;;;;7.61;59.06;96752.56;4972477;28;20502;-70
2023/03/14 02:46:20;;;;;;;13.40;7.18;;;;;;;7.57;59.13;96759.78;4971884;28;20476;-71
2023/03/14 02:48:51;;;;;;;13.05;7.28;;;;;;;7.54;59.18;96746.78;4974618;28;20379;-70
2023/03/14 02:51:17;;;;;;;11.93;6.80;;;;;;;7.51;59.05;96741.97;4971874;28;20479;-71
2023/03/14 02:53:44;;;;;;;12.63;6.70;;;;;;;7.45;58.99;96733.94;4972387;28;20106;-71
2023/03/14 02:56:10;;;;;;;8.85;4.80;;;;;;;7.47;59.27;96749.19;4971871;28;20019;-71
2023/03/14 02:58:36;;;;;;;9.57;5.32;;;;;;;7.48;59.13;96737.94;4971750;28;20490;-71
2023/03/14 03:01:02;;;;;;;8.73;4.15;;;;;;;7.49;59.50;96741.50;4971542;28;20027;-71
2023/03/14 03:03:27;;;;;;;6.47;3.75;;;;;;;7.47;59.31;96744.53;4971311;28;20023;-71
2023/03/14 03:05:55;;;;;;;7.32;4.07;;;;;;;7.45;59.37;96755.75;4972443;28;20034;-70
2023/03/14 03:08:23;;;;;;;10.63;5.90;;;;;;;7.42;59.47;96748.22;4973489;28;20024;-71
2023/03/14 03:10:48;;;;;;;13.00;6.35;;;;;;;7.41;59.42;96745.78;4971985;28;20031;-70
2023/03/14 03:13:14;;;;;;;11.93;6.90;;;;;;;7.38;59.27;96754.59;4971486;28;20042;-70
2023/03/14 03:15:40;;;;;;;15.88;8.05;;;;;;;7.33;59.37;96760.22;4970092;28;20038;-71
2023/03/14 03:18:06;;;;;;;15.65;7.97;;;;;;;7.28;59.82;96783.78;4970011;28;20015;-70
2023/03/14 03:20:31;;;;;;;16.48;8.35;;;;;;;7.23;59.51;96804.94;4971347;28;20478;-70
2023/03/14 03:22:59;;;;;;;15.20;8.68;;;;;;;7.18;59.37;96805.06;4969865;28;20035;-70
2023/03/14 03:25:24;;;;;;;17.05;8.30;;;;;;;7.13;59.62;96811.47;4971107;28;20097;-70
2023/03/14 03:27:49;;;;;;;15.93;8.52;;;;;;;7.08;59.78;96806.97;4981988;28;20035;-71
2023/03/14 03:30:15;;;;;;;16.65;8.50;;;;;;;7.07;59.78;96821.72;4971395;28;20174;-71
2023/03/14 03:32:40;;;;;;;16.20;7.82;;;;;;;7.05;59.97;96802.16;4971267;28;20166;-71
2023/03/14 03:35:06;;;;;;;13.32;7.72;;;;;;;7.03;60.09;96809.00;4969624;28;20723;-71
2023/03/14 03:37:33;;;;;;;12.85;6.88;;;;;;;6.99;60.43;96814.28;4970680;28;20042;-71
2023/03/14 03:39:58;;;;;;;13.02;7.60;;;;;;;6.97;60.30;96820.03;4971090;28;20031;-71
2023/03/14 03:42:25;;;;;;;13.82;6.75;;;;;;;6.92;60.37;96822.94;4971642;28;20037;-71
2023/03/14 03:44:51;;;;;;;13.50;7.03;;;;;;;6.89;60.32;96823.56;4984138;28;20022;-71
2023/03/14 03:47:16;;;;;;;16.10;7.72;;;;;;;6.87;60.04;96819.53;4971097;28;20133;-70
2023/03/14 03:49:41;;;;;;;36.10;14.75;;;;;;;6.84;60.14;96799.16;4970922;28;20042;-70
2023/03/14 03:52:07;;;;;;;42.15;16.40;;;;;;;6.82;60.11;96815.00;4970890;28;20027;-70
2023/03/14 03:54:32;;;;;;;49.13;18.13;;;;;;;6.80;60.79;96812.59;4970960;28;20471;-71
2023/03/14 03:56:58;;;;;;;49.28;17.85;;;;;;;6.79;60.39;96812.91;4971186;28;20138;-70
2023/03/14 03:59:23;;;;;;;53.72;18.75;;;;;;;6.77;60.56;96815.16;4972284;28;20035;-70
2023/03/14 04:01:48;;;;;;;45.13;16.38;;;;;;;6.74;60.76;96802.94;4972074;28;20541;-70
2023/03/14 04:04:14;;;;;;;47.58;19.52;;;;;;;6.72;60.79;96799.75;4972243;28;20026;-71
2023/03/14 04:06:41;;;;;;;48.30;20.95;;;;;;;6.69;60.63;96806.59;4971279;28;20033;-70
2023/03/14 04:09:07;;;;;;;56.97;24.35;;;;;;;6.69;60.87;96806.59;4988542;28;20100;-71
2023/03/14 04:11:32;;;;;;;44.25;21.63;;;;;;;6.69;61.00;96797.63;4974126;28;20508;-71
2023/03/14 04:13:58;;;;;;;43.35;21.83;;;;;;;6.69;60.70;96797.63;4971890;28;20540;-71
2023/03/14 04:16:25;;;;;;;37.92;18.63;;;;;;;6.66;61.03;96790.09;4971037;28;20050;-70
2023/03/14 04:18:51;;;;;;;31.98;15.75;;;;;;;6.64;61.25;96790.38;4971681;28;20102;-70
2023/03/14 04:21:17;;;;;;;22.08;11.93;;;;;;;6.67;61.07;96788.97;4971677;28;20459;-71
2023/03/14 04:23:43;;;;;;;18.90;9.95;;;;;;;6.64;61.37;96775.97;4971819;28;20037;-71
2023/03/14 04:26:08;;;;;;;15.93;8.15;;;;;;;6.61;61.23;96762.97;4970445;28;20050;-70
2023/03/14 04:28:36;;;;;;;13.57;7.90;;;;;;;6.60;61.38;96766.81;4981717;28;20415;-71
2023/03/14 04:31:12;;;;;;;15.77;8.32;;;;;;;6.57;61.19;96759.25;4987986;28;20034;-71
2023/03/14 04:33:38;;;;;;;14.13;7.53;;;;;;;6.53;61.13;96751.72;4971726;28;20031;-71
2023/03/14 04:36:05;;;;;;;19.92;9.27;;;;;;;6.52;61.47;96747.38;4985960;28;20089;-71
2023/03/14 04:38:31;;;;;;;19.27;9.68;;;;;;;6.49;61.04;96741.75;4971178;28;20149;-70
2023/03/14 04:40:56;;;;;;;17.70;10.02;;;;;;;6.45;61.41;96743.50;4971540;28;20110;-70
2023/03/14 04:43:22;;;;;;;19.13;9.60;;;;;;;6.44;61.64;96728.28;4973986;28;20109;-71
2023/03/14 04:45:47;;;;;;;15.15;9.02;;;;;;;6.44;61.33;96744.63;4970773;28;20073;-70
2023/03/14 04:48:12;;;;;;;18.67;9.60;;;;;;;6.42;61.67;96739.47;4971442;28;20030;-71
2023/03/14 04:50:38;;;;;;;20.88;10.45;;;;;;;6.42;61.64;96747.63;4970987;28;20047;-72
2023/03/14 04:53:04;;;;;;;19.75;10.13;;;;;;;6.41;61.43;96737.84;4970911;28;20023;-71
2023/03/14 04:55:32;;;;;;;19.45;11.05;;;;;;;6.38;61.87;96750.19;4971057;28;20039;-71
2023/03/14 04:57:57;;;;;;;20.13;11.02;;;;;;;6.39;61.60;96753.69;4974512;28;20080;-70
2023/03/14 05:00:22;;;;;;;18.25;9.27;;;;;;;6.39;62.02;96746.34;4970571;28;20546;-70
2023/03/14 05:02:48;;;;;;;17.90;9.10;;;;;;;6.40;61.94;96747.13;4970922;28;20030;-70
2023/03/14 05:05:13;;;;;;;15.95;8.80;;;;;;;6.41;61.78;96746.03;4971040;28;20109;-71
2023/03/14 05:07:38;;;;;;;16.55;9.35;;;;;;;6.42;61.91;96744.13;4970299;28;20037;-71
2023/03/14 05:10:04;;;;;;;20.48;10.63;;;;;;;6.44;62.04;96739.16;4971247;28;20458;-71
2023/03/14 05:12:29;;;;;;;20.52;10.38;;;;;;;6.45;62.10;96719.78;4971268;28;20035;-71
2023/03/14 05:14:55;;;;;;;18.35;9.80;;;;;;;6.47;62.34;96714.81;4970981;28;20039;-71
2023/03/14 05:17:20;;;;;;;19.23;10.02;;;;;;;6.50;61.91;96702.53;4970820;28;20054;-71
2023/03/14 05:19:46;;;;;;;20.63;10.63;;;;;;;6.51;62.33;96710.38;4970699;28;20015;-71
2023/03/14 05:22:11;;;;;;;21.98;11.10;;;;;;;6.52;62.23;96711.19;4971071;28;20037;-70
2023/03/14 05:24:37;;;;;;;28.05;14.68;;;;;;;6.53;62.05;96710.03;4971021;28;20027;-71
2023/03/14 05:27:03;;;;;;;22.45;13.73;;;;;;;6.56;62.12;96717.59;4992638;28;20042;-71
2023/03/14 05:29:29;;;;;;;20.10;12.07;;;;;;;6.60;62.31;96721.28;4994219;28;20026;-71
2023/03/14 05:31:54;;;;;;;24.83;13.23;;;;;;;6.61;62.16;96719.38;4994279;28;20521;-71
2023/03/14 05:34:19;;;;;;;26.92;15.52;;;;;;;6.64;62.39;96702.41;4982046;28;20423;-71
2023/03/14 05:36:45;;;;;;;40.75;19.75;;;;;;;6.68;62.33;96696.03;4974582;28;20070;-71
2023/03/14 05:39:10;;;;;;;53.15;25.27;;;;;;;6.72;62.59;96693.47;4974002;28;20035;-71
2023/03/14 05:41:35;;;;;;;64.75;28.92;;;;;;;6.74;62.29;96688.50;4974346;28;20042;-70
2023/03/14 05:44:01;;;;;;;48.88;21.80;;;;;;;6.80;62.44;96687.25;4973864;28;20030;-71
2023/03/14 05:46:26;;;;;;;46.03;21.70;;;;;;;6.83;62.14;96681.16;4973815;28;20027;-71
2023/03/14 05:48:52;;;;;;;44.20;22.38;;;;;;;6.88;62.42;96671.25;4973817;28;20042;-70
2023/03/14 05:51:17;;;;;;;55.85;25.15;;;;;;;6.90;62.38;96669.81;4979865;28;20034;-70
2023/03/14 05:53:43;;;;;;;49.42;25.08;;;;;;;6.93;62.54;96662.94;4973979;28;20093;-71
2023/03/14 05:56:08;;;;;;;50.80;24.55;;;;;;;6.97;62.46;96664.69;4973624;28;20034;-71
2023/03/14 05:58:34;;;;;;;45.35;22.67;;;;;;;7.00;62.39;96664.06;4973825;28;20533;-70
2023/03/14 06:01:04;;;;;;;45.33;22.52;;;;;;;7.04;62.42;96666.16;4973647;28;20038;-70
2023/03/14 06:03:29;;;;;;;44.53;21.73;;;;;;;7.06;62.33;96655.75;4976039;28;20081;-71
2023/03/14 06:05:54;;;;;;;37.63;18.67;;;;;;;7.08;62.37;96658.94;4981899;28;20082;-70
2023/03/14 06:08:20;;;;;;;37.72;19.17;;;;;;;7.10;62.10;96656.72;4973442;28;20114;-71
2023/03/14 06:10:45;;;;;;;40.65;17.98;;;;;;;7.14;62.29;96636.66;4989626;28;20041;-70
2023/03/14 06:13:10;;;;;;;33.60;15.15;;;;;;;7.22;62.33;96642.44;4993656;28;20022;-71
2023/03/14 06:15:36;;;;;;;31.80;14.70;;;;;;;7.30;62.30;96630.75;4975156;28;20142;-71
2023/03/14 06:18:02;;;;;;;30.17;13.73;;;;;;;7.40;62.18;96635.09;4973727;28;20041;-71
2023/03/14 06:20:27;;;;;;;26.08;12.30;;;;;;;7.49;62.27;96638.63;4974405;28;20078;-70
2023/03/14 06:22:52;;;;;;;19.85;9.80;;;;;;;7.62;62.17;96627.88;4973687;28;20034;-71
2023/03/14 06:25:18;;;;;;;18.33;9.32;;;;;;;7.73;62.17;96621.75;4974090;28;20133;-71
2023/03/14 06:27:43;;;;;;;15.55;8.02;;;;;;;7.88;62.49;96614.22;4972907;28;20715;-71
2023/03/14 06:30:09;;;;;;;14.27;7.50;;;;;;;8.02;62.23;96614.81;4973227;28;20043;-71
2023/03/14 06:32:35;;;;;;;12.20;6.40;;;;;;;8.17;62.05;96616.19;4988570;28;20109;-71
2023/03/14 06:35:00;;;;;;;12.32;6.00;;;;;;;8.30;61.47;96600.75;4973679;28;20493;-71
2023/03/14 06:37:28;;;;;;;20.45;7.80;;;;;;;8.43;62.23;96592.66;4983758;28;20037;-71
2023/03/14 06:39:54;;;;;;;14.38;6.43;;;;;;;8.58;61.91;96585.88;4973162;28;20538;-71
2023/03/14 06:42:20;;;;;;;11.65;5.28;;;;;;;8.69;61.26;96587.09;4971965;28;20030;-71
2023/03/14 06:44:45;;;;;;;10.70;5.72;;;;;;;8.79;60.99;96581.25;4972867;28;20475;-74
2023/03/14 06:47:10;;;;;;;13.55;6.60;;;;;;;8.90;60.72;96591.81;4980131;28;20023;-71
2023/03/14 06:49:36;;;;;;;13.07;7.07;;;;;;;9.00;60.50;96591.41;4973197;28;20061;-72
2023/03/14 06:52:01;;;;;;;19.45;9.00;;;;;;;9.09;60.81;96589.44;4980086;28;20042;-71
2023/03/14 06:54:26;;;;;;;12.32;5.60;;;;;;;9.20;60.09;96592.56;4977634;28;20042;-71
2023/03/14 06:56:52;;;;;;;13.40;5.55;;;;;;;9.30;60.46;96596.03;4988470;28;20049;-71
2023/03/14 06:59:17;;;;;;;11.93;5.63;;;;;;;9.42;60.26;96607.06;4972726;28;20031;-71
2023/03/14 07:01:42;;;;;;;10.85;5.38;;;;;;;9.55;60.22;96621.59;4972380;28;20027;-72
2023/03/14 07:04:09;;;;;;;8.90;4.57;;;;;;;9.66;60.25;96621.97;4972589;28;20019;-72
2023/03/14 07:06:34;;;;;;;9.13;4.88;;;;;;;9.76;59.37;96626.25;4972065;28;20467;-72
2023/03/14 07:09:00;;;;;;;12.32;5.60;;;;;;;9.85;59.32;96613.28;4982715;28;20036;-72
2023/03/14 07:11:26;;;;;;;7.75;4.82;;;;;;;9.95;59.10;96621.06;4991030;28;20025;-72
2023/03/14 07:13:51;;;;;;;10.82;5.63;;;;;;;10.03;59.27;96637.75;4971657;28;20038;-72
2023/03/14 07:16:17;;;;;;;8.25;4.22;;;;;;;10.10;58.76;96636.06;4971670;28;20030;-71
2023/03/14 07:18:42;;;;;;;10.75;5.15;;;;;;;10.18;58.85;96639.06;4971135;28;20049;-70
2023/03/14 07:21:09;;;;;;;10.85;6.28;;;;;;;10.25;58.01;96642.81;4970715;28;20117;-70
2023/03/14 07:23:35;;;;;;;11.00;4.53;;;;;;;10.34;57.72;96645.50;4971756;28;20042;-70
2023/03/14 07:26:00;;;;;;;8.95;4.35;;;;;;;10.41;58.01;96653.19;4970513;28;20050;-70
2023/03/14 07:28:27;;;;;;;13.27;4.90;;;;;;;10.49;57.65;96646.81;4970536;28;20376;-70
2023/03/14 07:30:52;;;;;;;11.20;5.15;;;;;;;10.55;57.69;96647.38;4970391;28;20438;-70
2023/03/14 07:33:18;;;;;;;8.48;4.70;;;;;;;10.61;56.72;96651.50;4969755;28;20030;-70
2023/03/14 07:35:43;;;;;;;10.20;5.97;;;;;;;10.67;57.55;96665.78;4970258;28;20026;-70
2023/03/14 07:38:08;;;;;;;11.75;5.00;;;;;;;10.74;57.55;96657.78;4969832;28;20519;-70
2023/03/14 07:40:34;;;;;;;10.45;5.13;;;;;;;10.83;57.75;96653.00;4973276;28;20043;-71
2023/03/14 07:42:59;;;;;;;9.10;5.22;;;;;;;10.93;57.28;96667.41;4983570;28;20030;-70
2023/03/14 07:45:24;;;;;;;13.15;4.82;;;;;;;10.99;56.93;96660.56;4970880;28;20380;-70
2023/03/14 07:47:50;;;;;;;11.93;4.22;;;;;;;11.06;55.47;96671.72;4970694;28;20019;-70
2023/03/14 07:50:16;;;;;;;13.82;4.80;;;;;;;11.13;55.75;96663.72;4969901;28;20023;-69
2023/03/14 07:52:41;;;;;;;10.27;5.00;;;;;;;11.21;55.95;96662.00;4970825;28;20066;-68
2023/03/14 07:55:07;;;;;;;12.52;5.65;;;;;;;11.27;54.72;96671.59;4971768;28;20035;-69
2023/03/14 07:57:33;;;;;;;12.60;5.45;;;;;;;11.31;55.32;96663.50;4966543;28;20506;-69
2023/03/14 07:59:58;;;;;;;21.08;7.57;;;;;;;11.33;54.86;96661.22;4971271;28;20560;-68
2023/03/14 08:02:23;;;;;;;16.70;8.55;;;;;;;11.37;54.66;96673.09;4971203;28;20027;-68
2023/03/14 08:04:50;;;;;;;13.30;6.22;;;;;;;11.40;54.73;96671.59;4970842;28;20022;-70
2023/03/14 08:07:15;;;;;;;12.02;5.47;;;;;;;11.42;54.35;96674.78;4971150;28;20031;-68
2023/03/14 08:09:41;;;;;;;11.20;6.18;;;;;;;11.48;54.39;96667.94;4970042;28;20033;-67
2023/03/14 08:12:07;;;;;;;12.70;6.28;;;;;;;11.58;54.18;96674.88;4971557;28;20403;-67
2023/03/14 08:14:33;;;;;;;11.98;5.45;;;;;;;11.69;54.15;96673.25;4970826;28;20038;-67
2023/03/14 08:16:58;;;;;;;11.52;4.63;;;;;;;11.83;53.65;96674.81;4970167;28;20094;-68
2023/03/14 08:19:24;;;;;;;14.43;5.05;;;;;;;11.96;54.06;96667.34;4970047;28;20027;-68
2023/03/14 08:21:50;;;;;;;9.73;4.47;;;;;;;12.13;53.59;96658.03;4969885;28;20043;-67
2023/03/14 08:24:15;;;;;;;12.02;5.65;;;;;;;12.27;54.17;96666.63;4970452;28;20464;-68
2023/03/14 08:26:41;;;;;;;10.02;4.47;;;;;;;12.38;52.60;96657.88;4969836;28;20086;-68
2023/03/14 08:29:07;;;;;;;9.68;5.03;;;;;;;12.39;52.83;96664.97;4970288;28;20038;-68
2023/03/14 08:31:34;;;;;;;9.50;4.03;;;;;;;12.42;52.34;96669.78;4969538;28;20086;-68
2023/03/14 08:33:59;;;;;;;6.80;3.40;;;;;;;12.41;52.90;96671.75;4969659;28;20114;-68
2023/03/14 08:36:25;;;;;;;9.77;3.95;;;;;;;12.42;52.45;96665.09;4969119;28;20043;-68
2023/03/14 08:38:50;;;;;;;6.22;3.10;;;;;;;12.41;51.86;96677.25;4968060;28;20142;-68
2023/03/14 08:41:15;;;;;;;6.80;3.05;;;;;;;12.35;51.96;96665.69;4968281;28;20052;-68
2023/03/14 08:43:41;;;;;;;5.40;3.28;;;;;;;12.32;51.66;96669.13;4969116;28;20054;-70
2023/03/14 08:46:06;;;;;;;7.00;4.35;;;;;;;12.30;52.73;96667.91;4970428;28;20456;-68
2023/03/14 08:48:32;;;;;;;7.65;3.63;;;;;;;12.28;52.24;96668.22;4968785;28;20027;-69
2023/03/14 08:51:07;;;;;;;7.85;3.97;;;;;;;12.29;52.27;96686.31;4969265;28;20038;-69
2023/03/14 08:53:33;;;;;;;8.57;3.63;;;;;;;12.31;52.03;96684.03;4969917;28;20038;-68
2023/03/14 08:55:58;;;;;;;11.07;4.75;;;;;;;12.36;52.16;96685.75;4970638;28;20399;-68
2023/03/14 08:58:24;;;;;;;8.43;4.30;;;;;;;12.45;52.09;96705.59;4970349;28;20034;-68
2023/03/14 09:00:50;;;;;;;8.70;3.38;;;;;;;12.56;51.74;96710.59;4969500;28;20515;-67
2023/03/14 09:03:15;;;;;;;15.23;5.80;;;;;;;12.65;52.02;96701.00;4969138;28;20522;-68
2023/03/14 09:05:42;;;;;;;7.95;4.10;;;;;;;12.75;51.51;96715.41;4969918;28;20097;-68
2023/03/14 09:08:07;;;;;;;8.57;4.57;;;;;;;12.77;51.55;96713.91;4966739;28;20027;-67
2023/03/14 09:10:32;;;;;;;11.32;4.28;;;;;;;12.77;51.57;96702.09;4966610;28;20395;-68
2023/03/14 09:12:58;;;;;;;9.70;4.10;;;;;;;12.76;51.65;96706.81;4969571;28;20030;-68
2023/03/14 09:15:24;;;;;;;10.55;5.55;;;;;;;12.76;51.24;96737.06;4969117;28;20029;-68
2023/03/14 09:17:49;;;;;;;6.78;3.30;;;;;;;12.72;50.85;96716.94;4968753;28;20814;-68
2023/03/14 09:20:15;;;;;;;7.20;3.20;;;;;;;12.65;51.14;96708.47;4970153;28;20073;-68
2023/03/14 09:22:40;;;;;;;8.88;3.70;;;;;;;12.65;50.84;96701.00;4970093;28;20111;-68
2023/03/14 09:25:06;;;;;;;7.15;3.30;;;;;;;12.66;51.04;96690.81;4967258;28;20087;-68
2023/03/14 09:27:32;;;;;;;7.53;3.30;;;;;;;12.67;50.95;96684.19;4969715;28;20051;-70
2023/03/14 09:29:57;;;;;;;6.50;3.20;;;;;;;12.71;50.82;96693.31;4965031;28;20526;-69
2023/03/14 09:32:23;;;;;;;6.40;3.17;;;;;;;12.74;51.20;96702.81;4980603;28;20117;-70
2023/03/14 09:34:48;;;;;;;4.18;2.85;;;;;;;12.78;51.29;96706.44;4969510;28;20030;-69
2023/03/14 09:37:16;;;;;;;7.20;3.33;;;;;;;12.80;51.19;96710.47;4969171;28;20038;-69
2023/03/14 09:39:41;;;;;;;5.70;3.40;;;;;;;12.81;51.06;96722.25;4967746;28;20027;-68
2023/03/14 09:42:12;;;;;;;5.97;3.05;;;;;;;12.85;50.78;96714.06;4972849;28;20430;-69
2023/03/14 09:44:52;;;;;;;6.30;3.78;;;;;;;12.96;51.39;96684.88;4969181;28;20094;-69
2023/03/14 09:47:20;;;;;;;5.63;3.38;;;;;;;13.08;50.70;96690.31;4967861;28;20475;-69
2023/03/14 09:49:45;;;;;;;6.57;3.50;;;;;;;13.03;50.69;96733.81;4968297;28;20035;-68
2023/03/14 09:52:39;;;;;;;6.07;3.20;;;;;;;12.99;51.29;96727.41;4968859;28;20034;-69
2023/03/14 09:55:17;;;;;;;5.93;2.90;;;;;;;13.00;51.36;96737.28;4962846;28;20174;-69
2023/03/14 09:57:45;;;;;;;7.22;3.13;;;;;;;13.03;50.99;96733.81;4967452;28;20523;-68
2023/03/14 10:00:16;;;;;;;6.65;3.20;;;;;;;13.06;50.88;96727.56;4967685;28;20566;-68
2023/03/14 10:02:47;;;;;;;6.00;3.55;;;;;;;13.04;51.78;96749.97;4978949;28;20033;-69
2023/03/14 10:05:19;;;;;;;5.50;2.95;;;;;;;13.01;51.85;96758.13;4989600;28;20670;-69
2023/03/14 10:07:44;;;;;;;7.43;3.88;;;;;;;12.98;51.74;96759.63;4989251;28;20239;-69
2023/03/14 10:10:21;;;;;;;6.53;3.50;;;;;;;12.92;51.59;96772.84;4989535;28;20450;-69
2023/03/14 10:12:55;;;;;;;6.03;3.53;;;;;;;12.86;51.65;96762.44;4979720;28;20494;-70
2023/03/14 10:15:32;;;;;;;7.40;3.60;;;;;;;12.77;51.38;96752.44;4992572;28;20038;-71
2023/03/14 10:18:00;;;;;;;6.38;3.58;;;;;;;12.70;51.91;96756.91;4991651;28;20030;-70
2023/03/14 10:20:27;;;;;;;7.30;3.63;;;;;;;12.64;51.82;96762.66;4983676;28;20030;-69
2023/03/14 10:22:53;;;;;;;9.25;3.60;;;;;;;12.59;51.93;96760.19;4974209;28;20126;-71
2023/03/14 10:25:29;;;;;;;8.18;3.92;;;;;;;12.50;51.68;96754.06;4973810;28;20047;-73
2023/03/14 10:27:55;;;;;;;5.72;3.20;;;;;;;12.43;51.87;96748.34;4973689;28;20153;-73
2023/03/14 10:30:28;;;;;;;7.40;3.33;;;;;;;12.37;52.11;96750.56;4974349;28;20132;-73
2023/03/14 10:32:53;;;;;;;10.18;3.38;;;;;;;12.34;52.06;96762.25;4985876;28;20045;-72
2023/03/14 10:35:21;;;;;;;7.15;3.50;;;;;;;12.30;52.49;96753.09;4991831;28;20116;-72
2023/03/14 10:37:51;;;;;;;6.55;2.90;;;;;;;12.26;52.66;96758.47;4992912;28;20383;-72
2023/03/14 10:40:17;;;;;;;;;;;;;;;12.25;52.87;96747.84;4994476;28;20049;-72
2023/03/14 10:42:46;;;;;;;9.27;3.42;;;;;;;12.21;52.13;96748.56;4993406;28;19917;-72
2023/03/14 10:45:21;;;;;;;7.25;3.95;;;;;;;12.14;52.64;96758.56;4993083;28;20049;-72
2023/03/14 10:47:51;;;;;;;6.07;3.38;;;;;;;12.07;52.49;96767.38;4992756;28;21570;-73
2023/03/14 10:50:29;;;;;;;8.77;4.45;;;;;;;12.01;52.63;96766.81;4993544;28;20038;-72
2023/03/14 10:52:55;;;;;;;7.15;3.78;;;;;;;11.96;52.94;96766.25;4993223;28;20030;-73
2023/03/14 10:55:24;;;;;;;7.10;3.92;;;;;;;11.93;52.89;96769.69;4992723;28;20038;-73
2023/03/14 10:57:50;;;;;;;7.13;4.00;;;;;;;11.85;53.07;96771.38;4992506;28;20038;-72
2023/03/14 11:00:23;;;;;;;8.38;3.85;;;;;;;11.82;53.27;96769.38;4993260;28;20031;-71
2023/03/14 11:03:07;;;;;;;7.22;4.20;;;;;;;11.75;53.09;96764.44;4992324;28;20038;-73
2023/03/14 11:05:59;;;;;;;8.45;3.92;;;;;;;11.70;53.40;96768.22;4992854;28;20022;-73
2023/03/14 11:08:31;;;;;;;8.35;4.40;;;;;;;11.67;53.30;96757.13;4992561;28;20041;-72
2023/03/14 11:11:08;;;;;;;7.65;4.50;;;;;;;11.62;54.33;96758.16;4992903;28;20034;-72
2023/03/14 11:13:46;;;;;;;7.45;4.03;;;;;;;11.61;53.97;96760.09;4991743;28;20083;-73
2023/03/14 11:16:15;;;;;;;9.48;5.13;;;;;;;11.61;54.20;96764.78;4992465;28;20036;-73
2023/03/14 11:18:55;;;;;;;8.88;5.60;;;;;;;11.59;54.08;96748.69;4990581;28;20165;-72
2023/03/14 11:21:32;;;;;;;7.22;4.47;;;;;;;11.57;54.96;96752.91;4975680;28;20022;-72
2023/03/14 11:23:58;;;;;;;8.05;4.93;;;;;;;11.54;55.16;96762.63;4969036;28;20502;-73
2023/03/14 11:26:36;;;;;;;11.85;5.25;;;;;;;11.51;54.42;96760.56;4972284;28;20050;-72
2023/03/14 11:29:33;;;;;;;9.20;4.65;;;;;;;11.47;55.14;96757.69;4973163;28;20593;-73
2023/03/14 11:32:03;;;;;;;9.07;5.18;;;;;;;11.45;55.28;96760.00;4971121;28;20027;-73